Detall de PIREP

Printer-friendly versionPDF version

[2010/07/10 08:20:00]
Flight IATA:CT2103
Pilot Number:042
Company ICAO:CAT
Aircraft Type:F100/A
PAX:40
Departing Airport: LEBZ
Destination Airport: LEVC
Alternate Airport:LEPA
Online: VATSIM
Route:DCT CCS G7 CJN A33 CENTA
Flight Level:FL240
No Slew and time accel
No pause
Crash detect
Detect pilot in Cockpit between each 30 and 45 minutes
08:20 Zero fuel Weight: 81825 Lbs, Fuel Weight: 22694 Lbs
08:20 VATSIM:LEBZ 100800Z 28004KT 240V320 CAVOK 21/15 Q1018
08:20 VATSIM:LEVC 100800Z 33004KT 9999 FEW020 27/21 Q1020 NOSIG
08:20 VOICE CATALONIAN
08:33 Parking Brakes off
08:39 Take-off
08:39 Take off Weight: 104074 Lbs
08:39 Wind: 277 @ 004 Knots Heading: 304
08:39 POS N38 53 35 W006 49 29
08:39 Flaps:2 at 165 Knots
08:39 Gear Up: 168 Knots
08:39 Flaps:1 at 172 Knots
08:40 Flaps:0 at 198 Knots
08:54 Wind:256@018 Knots Heading: 074 Ground Speed: 411 Knots A
ltitude 23438 ft
08:54 TOC
08:54 Fuel Weight: 20375 Lb
09:09 Wind:277@014 Knots Heading: 072 Ground Speed: 464 Knots Altitude 24229 ft
09:18 TOD
09:18 Fuel Weight: 18012 Lb
09:24 Wind:269@007 Knots Heading: 116 Ground Speed: 283 Knots Altitude 12713 ft
09:27 Flaps:1 at 214 Knots
09:36 Flaps:2 at 169 Knots
09:37 Flaps:3 at 164 Knots
09:39 Wind:052@005 Knots Heading: 107 Ground Speed: 165 Knots Altitude 2995 ft
09:40 Gear Down: 158 Knots
09:41 Flaps:4 at 159 Knots
09:41 Flaps:3 at 159 Knots
09:43 TouchDown:Rate -726 ft/min Speed: 154 Knots
09:44 VATSIM:LEVC 100930Z 10005KT 9999 SCT020 28/21 Q1019 NOSIG
09:44 Land
09:44 Wind:003@005 Knots
09:44 Heading: 116
09:44 Flight Duration: 01:05
09:44 Landing Weight: 98319 Lbs
09:44 POS N39 29 21 W000 28 52
09:46 Parking brakes on
09:46 Block to Block Duration: 01:13
09:46 Final Fuel: 16347 Lbls
0
9:46 Spent Fuel: 6347 Lbls
09:46 Flight Length: 271 NM
09:46 TOD Land Length: 100 NM

Exportar CSV

Powered by Drupal - Modified by Danger4k